sensor_id;sensor_type;location;lat;lon;timestamp;pressure;altitude;pressure_sealevel;temperature;humidity
10176;BME280;18221;38.704;0.152;2023-03-23T00:05:14;98876.28;;;18.43;56.04
10176;BME280;18221;38.704;0.152;2023-03-23T00:07:43;98868.00;;;18.44;55.89
10176;BME280;18221;38.704;0.152;2023-03-23T00:10:11;98878.69;;;18.53;55.72
10176;BME280;18221;38.704;0.152;2023-03-23T00:12:40;98879.41;;;18.46;55.75
10176;BME280;18221;38.704;0.152;2023-03-23T00:15:09;98869.88;;;18.65;55.38
10176;BME280;18221;38.704;0.152;2023-03-23T00:17:40;98873.34;;;18.59;55.30
10176;BME280;18221;38.704;0.152;2023-03-23T00:20:10;98867.31;;;18.57;55.16
10176;BME280;18221;38.704;0.152;2023-03-23T00:22:40;98870.19;;;18.34;55.43
10176;BME280;18221;38.704;0.152;2023-03-23T00:25:09;98867.66;;;18.47;55.33
10176;BME280;18221;38.704;0.152;2023-03-23T00:27:37;98859.47;;;18.56;55.26
10176;BME280;18221;38.704;0.152;2023-03-23T00:30:08;98863.94;;;18.48;55.24
10176;BME280;18221;38.704;0.152;2023-03-23T00:32:36;98864.00;;;18.55;55.11
10176;BME280;18221;38.704;0.152;2023-03-23T00:35:05;98859.22;;;18.51;55.02
10176;BME280;18221;38.704;0.152;2023-03-23T00:37:34;98862.09;;;18.49;55.24
10176;BME280;18221;38.704;0.152;2023-03-23T00:40:05;98865.72;;;18.63;55.07
10176;BME280;18221;38.704;0.152;2023-03-23T00:42:36;98861.34;;;18.62;55.40
10176;BME280;18221;38.704;0.152;2023-03-23T00:45:06;98861.47;;;18.75;54.93
10176;BME280;18221;38.704;0.152;2023-03-23T00:47:37;98854.88;;;18.77;54.83
10176;BME280;18221;38.704;0.152;2023-03-23T00:50:08;98858.16;;;18.73;54.67
10176;BME280;18221;38.704;0.152;2023-03-23T00:52:36;98854.44;;;18.74;54.81
10176;BME280;18221;38.704;0.152;2023-03-23T00:55:07;98856.22;;;18.67;54.75
10176;BME280;18221;38.704;0.152;2023-03-23T00:57:36;98850.91;;;18.73;54.88
10176;BME280;18221;38.704;0.152;2023-03-23T01:00:05;98861.72;;;18.80;54.79
10176;BME280;18221;38.704;0.152;2023-03-23T01:02:37;98854.69;;;18.79;54.62
10176;BME280;18221;38.704;0.152;2023-03-23T01:05:08;98845.22;;;18.62;54.84
10176;BME280;18221;38.704;0.152;2023-03-23T01:07:36;98844.44;;;18.68;54.71
10176;BME280;18221;38.704;0.152;2023-03-23T01:10:08;98843.50;;;18.54;55.16
10176;BME280;18221;38.704;0.152;2023-03-23T01:12:39;98838.19;;;18.61;54.90
10176;BME280;18221;38.704;0.152;2023-03-23T01:15:08;98830.81;;;18.69;54.92
10176;BME280;18221;38.704;0.152;2023-03-23T01:17:36;98833.56;;;18.48;54.97
10176;BME280;18221;38.704;0.152;2023-03-23T01:20:06;98827.69;;;18.23;55.33
10176;BME280;18221;38.704;0.152;2023-03-23T01:22:35;98825.38;;;18.20;55.54
10176;BME280;18221;38.704;0.152;2023-03-23T01:25:07;98825.00;;;18.23;55.48
10176;BME280;18221;38.704;0.152;2023-03-23T01:27:36;98820.81;;;18.14;55.71
10176;BME280;18221;38.704;0.152;2023-03-23T01:30:06;98816.31;;;18.00;55.96
10176;BME280;18221;38.704;0.152;2023-03-23T01:32:35;98818.09;;;17.93;56.11
10176;BME280;18221;38.704;0.152;2023-03-23T01:35:03;98814.75;;;17.91;56.32
10176;BME280;18221;38.704;0.152;2023-03-23T01:37:32;98808.63;;;17.97;56.31
10176;BME280;18221;38.704;0.152;2023-03-23T01:40:05;98806.19;;;18.02;56.41
10176;BME280;18221;38.704;0.152;2023-03-23T01:42:37;98803.13;;;18.05;56.31
10176;BME280;18221;38.704;0.152;2023-03-23T01:45:30;98803.34;;;18.04;56.23
10176;BME280;18221;38.704;0.152;2023-03-23T01:48:16;98799.69;;;18.11;56.18
10176;BME280;18221;38.704;0.152;2023-03-23T01:50:54;98793.94;;;18.14;56.09
10176;BME280;18221;38.704;0.152;2023-03-23T01:53:28;98791.16;;;18.08;56.03
10176;BME280;18221;38.704;0.152;2023-03-23T01:56:01;98795.81;;;18.20;56.06
10176;BME280;18221;38.704;0.152;2023-03-23T01:58:33;98783.84;;;18.23;55.92
10176;BME280;18221;38.704;0.152;2023-03-23T02:01:06;98779.63;;;18.35;55.78
10176;BME280;18221;38.704;0.152;2023-03-23T02:03:41;98780.19;;;18.30;55.60
10176;BME280;18221;38.704;0.152;2023-03-23T02:06:11;98764.13;;;18.37;55.46
10176;BME280;18221;38.704;0.152;2023-03-23T02:08:41;98764.38;;;18.42;55.05
10176;BME280;18221;38.704;0.152;2023-03-23T02:11:16;98766.13;;;18.49;54.95
10176;BME280;18221;38.704;0.152;2023-03-23T02:13:46;98762.81;;;18.47;54.63
10176;BME280;18221;38.704;0.152;2023-03-23T02:16:27;98763.53;;;18.41;54.74
10176;BME280;18221;38.704;0.152;2023-03-23T02:19:23;98752.78;;;18.41;54.50
10176;BME280;18221;38.704;0.152;2023-03-23T02:22:34;98749.16;;;18.28;54.73
10176;BME280;18221;38.704;0.152;2023-03-23T02:25:37;98758.63;;;17.96;55.18
10176;BME280;18221;38.704;0.152;2023-03-23T02:31:41;98752.66;;;18.01;55.29
10176;BME280;18221;38.704;0.152;2023-03-23T02:34:18;98748.63;;;17.69;55.90
10176;BME280;18221;38.704;0.152;2023-03-23T02:36:57;98747.41;;;17.71;56.22
10176;BME280;18221;38.704;0.152;2023-03-23T02:39:31;98745.63;;;17.78;56.18
10176;BME280;18221;38.704;0.152;2023-03-23T02:42:05;98745.44;;;17.59;56.36
10176;BME280;18221;38.704;0.152;2023-03-23T02:44:38;98751.31;;;17.69;56.21
10176;BME280;18221;38.704;0.152;2023-03-23T02:47:14;98743.47;;;17.67;56.36
10176;BME280;18221;38.704;0.152;2023-03-23T02:49:48;98748.19;;;17.51;56.53
10176;BME280;18221;38.704;0.152;2023-03-23T02:52:21;98742.63;;;17.52;56.73
10176;BME280;18221;38.704;0.152;2023-03-23T02:54:53;98749.50;;;17.55;56.93
10176;BME280;18221;38.704;0.152;2023-03-23T02:57:24;98747.06;;;17.60;56.97
10176;BME280;18221;38.704;0.152;2023-03-23T02:59:54;98743.13;;;17.77;56.61
10176;BME280;18221;38.704;0.152;2023-03-23T03:02:26;98741.34;;;17.84;56.47
10176;BME280;18221;38.704;0.152;2023-03-23T03:05:03;98735.66;;;17.94;56.13
10176;BME280;18221;38.704;0.152;2023-03-23T03:08:00;98737.25;;;17.88;55.79
10176;BME280;18221;38.704;0.152;2023-03-23T03:10:36;98729.97;;;17.82;55.97
10176;BME280;18221;38.704;0.152;2023-03-23T03:13:17;98726.28;;;17.83;56.10
10176;BME280;18221;38.704;0.152;2023-03-23T03:15:54;98726.38;;;17.96;55.90
10176;BME280;18221;38.704;0.152;2023-03-23T03:18:31;98730.47;;;17.71;56.14
10176;BME280;18221;38.704;0.152;2023-03-23T03:21:06;98728.25;;;17.74;56.33
10176;BME280;18221;38.704;0.152;2023-03-23T03:23:48;98722.53;;;17.84;56.31
10176;BME280;18221;38.704;0.152;2023-03-23T03:26:18;98734.72;;;17.80;56.12
10176;BME280;18221;38.704;0.152;2023-03-23T03:28:49;98722.28;;;17.79;56.00
10176;BME280;18221;38.704;0.152;2023-03-23T03:31:21;98732.25;;;17.64;56.25
10176;BME280;18221;38.704;0.152;2023-03-23T03:33:52;98720.47;;;17.44;56.58
10176;BME280;18221;38.704;0.152;2023-03-23T03:36:26;98726.72;;;17.51;56.62
10176;BME280;18221;38.704;0.152;2023-03-23T03:39:04;98723.13;;;17.58;56.51
10176;BME280;18221;38.704;0.152;2023-03-23T03:41:34;98712.97;;;17.75;56.29
10176;BME280;18221;38.704;0.152;2023-03-23T03:44:04;98718.84;;;17.64;56.32
10176;BME280;18221;38.704;0.152;2023-03-23T03:46:33;98723.56;;;17.62;56.49
10176;BME280;18221;38.704;0.152;2023-03-23T03:49:04;98708.47;;;17.61;56.50
10176;BME280;18221;38.704;0.152;2023-03-23T03:51:35;98716.78;;;17.66;56.26
10176;BME280;18221;38.704;0.152;2023-03-23T03:54:04;98715.94;;;17.65;56.34
10176;BME280;18221;38.704;0.152;2023-03-23T03:56:32;98721.19;;;17.73;56.08
10176;BME280;18221;38.704;0.152;2023-03-23T03:59:02;98716.78;;;17.66;56.28
10176;BME280;18221;38.704;0.152;2023-03-23T04:01:31;98727.28;;;17.61;56.46
10176;BME280;18221;38.704;0.152;2023-03-23T04:04:00;98722.75;;;17.61;56.42
10176;BME280;18221;38.704;0.152;2023-03-23T04:06:28;98727.53;;;17.66;56.45
10176;BME280;18221;38.704;0.152;2023-03-23T04:08:59;98726.25;;;17.62;56.49
10176;BME280;18221;38.704;0.152;2023-03-23T04:11:28;98726.06;;;17.63;56.36
10176;BME280;18221;38.704;0.152;2023-03-23T04:13:56;98730.22;;;17.66;56.50
10176;BME280;18221;38.704;0.152;2023-03-23T04:16:25;98732.72;;;17.67;56.52
10176;BME280;18221;38.704;0.152;2023-03-23T04:18:56;98732.47;;;17.62;56.51
10176;BME280;18221;38.704;0.152;2023-03-23T04:21:25;98737.56;;;17.57;56.65
10176;BME280;18221;38.704;0.152;2023-03-23T04:23:57;98732.72;;;17.67;56.77
10176;BME280;18221;38.704;0.152;2023-03-23T04:26:28;98730.84;;;17.68;56.62
10176;BME280;18221;38.704;0.152;2023-03-23T04:28:57;98735.00;;;17.70;56.39
10176;BME280;18221;38.704;0.152;2023-03-23T04:31:26;98731.94;;;17.73;56.36
10176;BME280;18221;38.704;0.152;2023-03-23T04:33:55;98734.00;;;17.71;56.28
10176;BME280;18221;38.704;0.152;2023-03-23T04:36:24;98728.81;;;17.70;56.15
10176;BME280;18221;38.704;0.152;2023-03-23T04:38:53;98739.81;;;17.75;56.00
10176;BME280;18221;38.704;0.152;2023-03-23T04:41:23;98746.84;;;17.76;55.75
10176;BME280;18221;38.704;0.152;2023-03-23T04:43:52;98741.47;;;17.76;55.49
10176;BME280;18221;38.704;0.152;2023-03-23T04:46:26;98746.78;;;17.69;55.35
10176;BME280;18221;38.704;0.152;2023-03-23T04:48:55;98739.09;;;17.66;55.18
10176;BME280;18221;38.704;0.152;2023-03-23T04:51:25;98740.13;;;17.65;55.16
10176;BME280;18221;38.704;0.152;2023-03-23T04:53:53;98737.44;;;17.65;54.93
10176;BME280;18221;38.704;0.152;2023-03-23T04:56:23;98743.97;;;17.56;55.05
10176;BME280;18221;38.704;0.152;2023-03-23T04:58:51;98748.88;;;17.53;54.81
10176;BME280;18221;38.704;0.152;2023-03-23T05:01:20;98752.19;;;17.55;54.75
10176;BME280;18221;38.704;0.152;2023-03-23T05:03:48;98755.25;;;17.52;54.47
10176;BME280;18221;38.704;0.152;2023-03-23T05:06:16;98759.22;;;17.56;54.30
10176;BME280;18221;38.704;0.152;2023-03-23T05:08:44;98743.75;;;17.58;54.17
10176;BME280;18221;38.704;0.152;2023-03-23T05:11:12;98748.13;;;17.59;54.13
10176;BME280;18221;38.704;0.152;2023-03-23T05:13:42;98746.28;;;17.59;54.01
10176;BME280;18221;38.704;0.152;2023-03-23T05:16:10;98755.91;;;17.54;53.86
10176;BME280;18221;38.704;0.152;2023-03-23T05:18:38;98756.19;;;17.59;53.82
10176;BME280;18221;38.704;0.152;2023-03-23T05:21:07;98752.84;;;17.57;53.58
10176;BME280;18221;38.704;0.152;2023-03-23T05:23:35;98759.59;;;17.53;53.38
10176;BME280;18221;38.704;0.152;2023-03-23T05:26:04;98758.09;;;17.50;53.24
10176;BME280;18221;38.704;0.152;2023-03-23T05:28:33;98756.47;;;17.49;52.96
10176;BME280;18221;38.704;0.152;2023-03-23T05:31:04;98767.38;;;17.48;52.40
10176;BME280;18221;38.704;0.152;2023-03-23T05:33:32;98762.63;;;17.50;52.08
10176;BME280;18221;38.704;0.152;2023-03-23T05:36:00;98763.47;;;17.50;51.84
10176;BME280;18221;38.704;0.152;2023-03-23T05:38:31;98768.66;;;17.52;51.67
10176;BME280;18221;38.704;0.152;2023-03-23T05:40:59;98767.66;;;17.53;51.37
10176;BME280;18221;38.704;0.152;2023-03-23T05:43:28;98770.06;;;17.48;51.22
10176;BME280;18221;38.704;0.152;2023-03-23T05:45:56;98770.53;;;17.51;50.89
10176;BME280;18221;38.704;0.152;2023-03-23T05:48:26;98768.41;;;17.47;50.36
10176;BME280;18221;38.704;0.152;2023-03-23T05:50:54;98778.75;;;17.50;50.15
10176;BME280;18221;38.704;0.152;2023-03-23T05:53:22;98776.00;;;17.43;50.01
10176;BME280;18221;38.704;0.152;2023-03-23T05:55:51;98778.22;;;17.40;49.82
10176;BME280;18221;38.704;0.152;2023-03-23T05:58:19;98777.41;;;17.24;50.33
10176;BME280;18221;38.704;0.152;2023-03-23T06:00:47;98784.34;;;17.34;50.29
10176;BME280;18221;38.704;0.152;2023-03-23T06:03:15;98782.91;;;17.52;49.85
10176;BME280;18221;38.704;0.152;2023-03-23T06:05:45;98781.44;;;17.50;49.73
10176;BME280;18221;38.704;0.152;2023-03-23T06:08:14;98783.19;;;17.57;49.42
10176;BME280;18221;38.704;0.152;2023-03-23T06:10:42;98788.84;;;17.62;49.16
10176;BME280;18221;38.704;0.152;2023-03-23T06:13:10;98791.34;;;17.64;49.06
10176;BME280;18221;38.704;0.152;2023-03-23T06:15:39;98793.81;;;17.65;48.99
10176;BME280;18221;38.704;0.152;2023-03-23T06:18:07;98791.25;;;17.57;49.13
10176;BME280;18221;38.704;0.152;2023-03-23T06:20:36;98799.50;;;17.56;49.49
10176;BME280;18221;38.704;0.152;2023-03-23T06:23:07;98804.88;;;17.56;49.80
10176;BME280;18221;38.704;0.152;2023-03-23T06:25:35;98801.63;;;17.60;49.82
10176;BME280;18221;38.704;0.152;2023-03-23T06:28:04;98807.81;;;17.61;49.86
10176;BME280;18221;38.704;0.152;2023-03-23T06:30:33;98806.44;;;17.65;50.00
10176;BME280;18221;38.704;0.152;2023-03-23T06:33:02;98804.19;;;17.68;50.15
10176;BME280;18221;38.704;0.152;2023-03-23T06:35:31;98815.13;;;17.67;50.29
10176;BME280;18221;38.704;0.152;2023-03-23T06:38:00;98814.56;;;17.71;50.19
10176;BME280;18221;38.704;0.152;2023-03-23T06:40:30;98816.59;;;17.69;50.54
10176;BME280;18221;38.704;0.152;2023-03-23T06:42:59;98818.72;;;17.74;50.28
10176;BME280;18221;38.704;0.152;2023-03-23T06:45:27;98817.88;;;17.73;50.30
10176;BME280;18221;38.704;0.152;2023-03-23T06:47:56;98814.66;;;17.78;50.34
10176;BME280;18221;38.704;0.152;2023-03-23T06:50:24;98823.78;;;17.83;50.23
10176;BME280;18221;38.704;0.152;2023-03-23T06:52:53;98822.56;;;17.86;50.39
10176;BME280;18221;38.704;0.152;2023-03-23T06:55:21;98828.75;;;17.86;50.35
10176;BME280;18221;38.704;0.152;2023-03-23T06:57:51;98830.44;;;17.87;50.51
10176;BME280;18221;38.704;0.152;2023-03-23T07:00:20;98831.44;;;18.01;50.42
10176;BME280;18221;38.704;0.152;2023-03-23T07:02:48;98829.63;;;18.08;50.31
10176;BME280;18221;38.704;0.152;2023-03-23T07:05:17;98831.81;;;18.19;50.12
10176;BME280;18221;38.704;0.152;2023-03-23T07:07:46;98835.25;;;18.34;50.04
10176;BME280;18221;38.704;0.152;2023-03-23T07:10:14;98837.88;;;18.49;49.82
10176;BME280;18221;38.704;0.152;2023-03-23T07:12:42;98834.03;;;18.58;49.89
10176;BME280;18221;38.704;0.152;2023-03-23T07:15:12;98842.16;;;18.65;49.77
10176;BME280;18221;38.704;0.152;2023-03-23T07:17:42;98834.56;;;18.75;49.58
10176;BME280;18221;38.704;0.152;2023-03-23T07:20:12;98838.88;;;18.97;49.40
10176;BME280;18221;38.704;0.152;2023-03-23T07:22:41;98842.00;;;19.00;49.49
10176;BME280;18221;38.704;0.152;2023-03-23T07:25:09;98843.91;;;19.06;49.41
10176;BME280;18221;38.704;0.152;2023-03-23T07:27:38;98848.03;;;19.02;49.19
10176;BME280;18221;38.704;0.152;2023-03-23T07:30:08;98847.63;;;19.05;49.04
10176;BME280;18221;38.704;0.152;2023-03-23T07:32:38;98853.44;;;19.09;49.07
10176;BME280;18221;38.704;0.152;2023-03-23T07:35:08;98848.50;;;19.13;48.80
10176;BME280;18221;38.704;0.152;2023-03-23T07:37:36;98850.81;;;19.22;48.51
10176;BME280;18221;38.704;0.152;2023-03-23T07:40:06;98860.97;;;19.20;48.44
10176;BME280;18221;38.704;0.152;2023-03-23T07:42:42;98857.56;;;19.05;48.39
10176;BME280;18221;38.704;0.152;2023-03-23T07:45:13;98869.59;;;19.09;48.11
10176;BME280;18221;38.704;0.152;2023-03-23T07:47:43;98876.91;;;19.22;48.06
10176;BME280;18221;38.704;0.152;2023-03-23T07:50:12;98866.25;;;19.07;48.58
10176;BME280;18221;38.704;0.152;2023-03-23T07:52:41;98872.13;;;19.17;48.82
10176;BME280;18221;38.704;0.152;2023-03-23T07:55:12;98867.19;;;19.21;48.82
10176;BME280;18221;38.704;0.152;2023-03-23T07:57:44;98872.34;;;19.22;49.17
10176;BME280;18221;38.704;0.152;2023-03-23T08:00:15;98870.88;;;19.13;49.66
10176;BME280;18221;38.704;0.152;2023-03-23T08:02:47;98875.78;;;19.03;50.17
10176;BME280;18221;38.704;0.152;2023-03-23T08:05:17;98871.78;;;18.99;50.42
10176;BME280;18221;38.704;0.152;2023-03-23T08:07:47;98879.78;;;18.86;51.20
10176;BME280;18221;38.704;0.152;2023-03-23T08:10:17;98875.47;;;18.91;51.64
10176;BME280;18221;38.704;0.152;2023-03-23T08:12:49;98867.09;;;19.07;51.56
10176;BME280;18221;38.704;0.152;2023-03-23T08:15:19;98870.78;;;19.00;51.95
10176;BME280;18221;38.704;0.152;2023-03-23T08:17:50;98867.25;;;18.99;51.84
10176;BME280;18221;38.704;0.152;2023-03-23T08:20:19;98863.34;;;19.02;51.79
10176;BME280;18221;38.704;0.152;2023-03-23T08:22:52;98869.41;;;18.83;52.55
10176;BME280;18221;38.704;0.152;2023-03-23T08:25:22;98873.38;;;18.87;52.77
10176;BME280;18221;38.704;0.152;2023-03-23T08:27:53;98872.31;;;18.88;52.84
10176;BME280;18221;38.704;0.152;2023-03-23T08:30:22;98875.22;;;18.86;53.12
10176;BME280;18221;38.704;0.152;2023-03-23T08:32:52;98869.22;;;18.84;53.09
10176;BME280;18221;38.704;0.152;2023-03-23T08:35:22;98873.13;;;18.82;53.28
10176;BME280;18221;38.704;0.152;2023-03-23T08:37:50;98868.09;;;19.00;52.87
10176;BME280;18221;38.704;0.152;2023-03-23T08:40:22;98878.72;;;19.15;52.64
10176;BME280;18221;38.704;0.152;2023-03-23T08:42:52;98872.97;;;19.24;52.04
10176;BME280;18221;38.704;0.152;2023-03-23T08:45:23;98871.59;;;19.35;51.84
10176;BME280;18221;38.704;0.152;2023-03-23T08:47:55;98875.06;;;19.22;51.67
10176;BME280;18221;38.704;0.152;2023-03-23T08:50:27;98881.66;;;19.20;51.56
10176;BME280;18221;38.704;0.152;2023-03-23T08:52:57;98877.03;;;19.07;51.89
10176;BME280;18221;38.704;0.152;2023-03-23T08:55:26;98883.41;;;18.99;52.07
10176;BME280;18221;38.704;0.152;2023-03-23T08:57:56;98880.16;;;18.83;52.26
10176;BME280;18221;38.704;0.152;2023-03-23T09:00:25;98884.63;;;18.97;52.14
10176;BME280;18221;38.704;0.152;2023-03-23T09:02:56;98885.84;;;18.94;52.12
10176;BME280;18221;38.704;0.152;2023-03-23T09:05:26;98880.31;;;19.02;51.93
10176;BME280;18221;38.704;0.152;2023-03-23T09:07:57;98881.03;;;19.18;51.59
10176;BME280;18221;38.704;0.152;2023-03-23T09:10:27;98884.19;;;19.28;51.28
10176;BME280;18221;38.704;0.152;2023-03-23T09:12:56;98889.88;;;19.11;51.60
10176;BME280;18221;38.704;0.152;2023-03-23T09:15:25;98891.81;;;19.24;52.25
10176;BME280;18221;38.704;0.152;2023-03-23T09:17:55;98890.81;;;19.25;52.07
10176;BME280;18221;38.704;0.152;2023-03-23T09:20:26;98892.03;;;19.23;52.18
10176;BME280;18221;38.704;0.152;2023-03-23T09:22:56;98895.47;;;19.38;52.19
10176;BME280;18221;38.704;0.152;2023-03-23T09:25:27;98898.22;;;19.44;51.55
10176;BME280;18221;38.704;0.152;2023-03-23T09:27:58;98904.47;;;19.51;51.22
10176;BME280;18221;38.704;0.152;2023-03-23T09:30:29;98905.47;;;19.50;51.05
10176;BME280;18221;38.704;0.152;2023-03-23T09:33:01;98903.84;;;19.56;50.94
10176;BME280;18221;38.704;0.152;2023-03-23T09:35:30;98907.22;;;19.64;50.80
10176;BME280;18221;38.704;0.152;2023-03-23T09:38:02;98896.41;;;19.58;50.86
10176;BME280;18221;38.704;0.152;2023-03-23T09:40:37;98907.00;;;19.66;50.56
10176;BME280;18221;38.704;0.152;2023-03-23T09:43:37;98902.69;;;19.71;50.60
10176;BME280;18221;38.704;0.152;2023-03-23T09:46:34;98903.31;;;19.73;51.02
10176;BME280;18221;38.704;0.152;2023-03-23T09:49:11;98902.28;;;19.75;51.01
10176;BME280;18221;38.704;0.152;2023-03-23T09:51:45;98906.06;;;19.87;50.90
10176;BME280;18221;38.704;0.152;2023-03-23T09:54:22;98902.41;;;19.94;50.42
10176;BME280;18221;38.704;0.152;2023-03-23T09:56:52;98903.59;;;19.85;50.37
10176;BME280;18221;38.704;0.152;2023-03-23T09:59:29;98899.47;;;19.89;49.94
10176;BME280;18221;38.704;0.152;2023-03-23T10:02:12;98901.09;;;19.84;50.16
10176;BME280;18221;38.704;0.152;2023-03-23T10:04:46;98904.03;;;19.89;49.99
10176;BME280;18221;38.704;0.152;2023-03-23T10:07:17;98910.03;;;19.91;49.63
10176;BME280;18221;38.704;0.152;2023-03-23T10:09:50;98906.50;;;19.84;49.88
10176;BME280;18221;38.704;0.152;2023-03-23T10:12:29;98902.13;;;19.83;50.24
10176;BME280;18221;38.704;0.152;2023-03-23T10:15:15;98911.91;;;19.90;50.07
10176;BME280;18221;38.704;0.152;2023-03-23T10:17:54;98909.81;;;19.86;50.32
10176;BME280;18221;38.704;0.152;2023-03-23T10:20:37;98909.59;;;19.81;49.73
10176;BME280;18221;38.704;0.152;2023-03-23T10:23:34;98905.44;;;19.78;49.19
10176;BME280;18221;38.704;0.152;2023-03-23T10:26:16;98913.75;;;19.90;48.41
10176;BME280;18221;38.704;0.152;2023-03-23T10:28:50;98913.63;;;20.11;48.01
10176;BME280;18221;38.704;0.152;2023-03-23T10:31:26;98918.19;;;20.10;47.53
10176;BME280;18221;38.704;0.152;2023-03-23T10:33:59;98917.72;;;19.94;47.84
10176;BME280;18221;38.704;0.152;2023-03-23T10:36:38;98909.44;;;19.95;47.43
10176;BME280;18221;38.704;0.152;2023-03-23T10:39:13;98912.34;;;19.94;47.99
10176;BME280;18221;38.704;0.152;2023-03-23T10:41:44;98917.31;;;19.97;48.44
10176;BME280;18221;38.704;0.152;2023-03-23T10:44:20;98910.25;;;19.96;48.43
10176;BME280;18221;38.704;0.152;2023-03-23T10:46:57;98906.78;;;20.02;48.29
10176;BME280;18221;38.704;0.152;2023-03-23T10:49:33;98906.81;;;20.15;48.31
10176;BME280;18221;38.704;0.152;2023-03-23T10:52:16;98908.25;;;20.11;48.21
10176;BME280;18221;38.704;0.152;2023-03-23T10:54:54;98911.66;;;20.33;48.04
10176;BME280;18221;38.704;0.152;2023-03-23T10:57:26;98908.75;;;20.34;47.56
10176;BME280;18221;38.704;0.152;2023-03-23T11:00:02;98905.88;;;20.49;47.83
10176;BME280;18221;38.704;0.152;2023-03-23T11:02:38;98908.78;;;20.41;47.62
10176;BME280;18221;38.704;0.152;2023-03-23T11:05:18;98912.31;;;20.41;48.43
10176;BME280;18221;38.704;0.152;2023-03-23T11:07:54;98904.63;;;20.51;48.27
10176;BME280;18221;38.704;0.152;2023-03-23T11:10:26;98911.09;;;20.57;48.36
10176;BME280;18221;38.704;0.152;2023-03-23T11:13:01;98907.97;;;20.53;48.04
10176;BME280;18221;38.704;0.152;2023-03-23T11:15:34;98901.31;;;20.56;47.29
10176;BME280;18221;38.704;0.152;2023-03-23T11:18:05;98904.22;;;20.54;46.80
10176;BME280;18221;38.704;0.152;2023-03-23T11:20:39;98900.69;;;20.60;46.15
10176;BME280;18221;38.704;0.152;2023-03-23T11:23:33;98902.78;;;20.58;46.43
10176;BME280;18221;38.704;0.152;2023-03-23T11:26:11;98910.66;;;20.60;46.19
10176;BME280;18221;38.704;0.152;2023-03-23T11:28:48;98908.56;;;20.42;47.24
10176;BME280;18221;38.704;0.152;2023-03-23T11:31:23;98901.72;;;20.53;47.58
10176;BME280;18221;38.704;0.152;2023-03-23T11:33:57;98901.28;;;20.49;47.77
10176;BME280;18221;38.704;0.152;2023-03-23T11:36:34;98893.66;;;20.59;47.97
10176;BME280;18221;38.704;0.152;2023-03-23T11:39:25;98908.81;;;20.67;48.22
10176;BME280;18221;38.704;0.152;2023-03-23T11:41:55;98896.78;;;20.69;47.93
10176;BME280;18221;38.704;0.152;2023-03-23T11:44:33;98899.28;;;20.77;47.56
10176;BME280;18221;38.704;0.152;2023-03-23T11:47:07;98897.59;;;20.70;47.74
10176;BME280;18221;38.704;0.152;2023-03-23T11:49:47;98901.13;;;20.77;47.77
10176;BME280;18221;38.704;0.152;2023-03-23T11:52:27;98896.56;;;20.84;47.66
10176;BME280;18221;38.704;0.152;2023-03-23T11:55:08;98899.66;;;20.81;47.92
10176;BME280;18221;38.704;0.152;2023-03-23T11:57:41;98889.91;;;20.86;47.59
10176;BME280;18221;38.704;0.152;2023-03-23T12:00:15;98885.13;;;21.15;46.82
10176;BME280;18221;38.704;0.152;2023-03-23T12:03:31;98881.38;;;21.03;45.55
10176;BME280;18221;38.704;0.152;2023-03-23T12:06:07;98875.38;;;21.01;45.30
10176;BME280;18221;38.704;0.152;2023-03-23T12:08:56;98878.91;;;20.94;46.02
10176;BME280;18221;38.704;0.152;2023-03-23T12:11:34;98877.25;;;21.07;46.24
10176;BME280;18221;38.704;0.152;2023-03-23T12:14:17;98876.84;;;21.10;45.56
10176;BME280;18221;38.704;0.152;2023-03-23T12:17:05;98875.38;;;21.07;45.24
10176;BME280;18221;38.704;0.152;2023-03-23T12:19:50;98878.06;;;21.01;44.78
10176;BME280;18221;38.704;0.152;2023-03-23T12:22:40;98869.16;;;21.13;44.50
10176;BME280;18221;38.704;0.152;2023-03-23T12:29:07;98854.59;;;21.27;44.07
10176;BME280;18221;38.704;0.152;2023-03-23T12:32:08;98857.72;;;21.18;44.47
10176;BME280;18221;38.704;0.152;2023-03-23T12:34:48;98857.72;;;21.05;44.91
10176;BME280;18221;38.704;0.152;2023-03-23T12:37:38;98848.16;;;21.22;45.24
10176;BME280;18221;38.704;0.152;2023-03-23T12:40:31;98848.97;;;21.29;45.24
10176;BME280;18221;38.704;0.152;2023-03-23T12:43:12;98841.50;;;21.18;45.47
10176;BME280;18221;38.704;0.152;2023-03-23T12:46:10;98833.19;;;21.26;45.54
10176;BME280;18221;38.704;0.152;2023-03-23T12:48:42;98839.16;;;21.47;45.01
10176;BME280;18221;38.704;0.152;2023-03-23T12:51:21;98846.19;;;21.55;45.05
10176;BME280;18221;38.704;0.152;2023-03-23T12:53:57;98832.59;;;21.75;44.82
10176;BME280;18221;38.704;0.152;2023-03-23T12:56:33;98822.28;;;21.52;44.38
10176;BME280;18221;38.704;0.152;2023-03-23T12:59:11;98819.38;;;21.53;44.46
10176;BME280;18221;38.704;0.152;2023-03-23T13:01:47;98824.56;;;21.55;44.24
10176;BME280;18221;38.704;0.152;2023-03-23T13:04:21;98815.09;;;21.77;43.53
10176;BME280;18221;38.704;0.152;2023-03-23T13:06:50;98811.59;;;21.77;43.56
10176;BME280;18221;38.704;0.152;2023-03-23T13:09:26;98811.13;;;21.80;43.61
10176;BME280;18221;38.704;0.152;2023-03-23T13:12:00;98812.56;;;21.82;43.33
10176;BME280;18221;38.704;0.152;2023-03-23T13:14:41;98799.97;;;21.70;44.20
10176;BME280;18221;38.704;0.152;2023-03-23T13:17:28;98801.47;;;21.66;44.16
10176;BME280;18221;38.704;0.152;2023-03-23T13:20:33;98805.38;;;21.70;44.89
10176;BME280;18221;38.704;0.152;2023-03-23T13:23:10;98795.50;;;21.95;44.83
10176;BME280;18221;38.704;0.152;2023-03-23T13:26:00;98804.56;;;22.07;43.85
10176;BME280;18221;38.704;0.152;2023-03-23T13:28:33;98792.56;;;22.03;43.59
10176;BME280;18221;38.704;0.152;2023-03-23T13:31:12;98788.94;;;22.16;44.19
10176;BME280;18221;38.704;0.152;2023-03-23T13:33:50;98787.41;;;22.26;43.67
10176;BME280;18221;38.704;0.152;2023-03-23T13:36:29;98784.56;;;22.14;43.23
10176;BME280;18221;38.704;0.152;2023-03-23T13:39:01;98781.69;;;22.09;43.37
10176;BME280;18221;38.704;0.152;2023-03-23T13:41:31;98777.22;;;22.22;43.53
10176;BME280;18221;38.704;0.152;2023-03-23T13:44:22;98777.00;;;22.23;42.99